createdAt,value
2023-03-16T00:00:06.311Z,25.74
2023-03-16T00:04:06.445Z,25.77
2023-03-16T00:08:06.627Z,25.81
2023-03-16T00:12:06.805Z,25.82
2023-03-16T00:16:07.108Z,25.78
2023-03-16T00:20:07.193Z,25.86
2023-03-16T00:24:07.349Z,25.86
2023-03-16T00:28:07.531Z,25.89
2023-03-16T00:32:07.653Z,25.85
2023-03-16T00:36:07.912Z,26.01
2023-03-16T00:40:07.801Z,26.08
2023-03-16T00:44:07.798Z,26.07
2023-03-16T00:48:07.818Z,26.12
2023-03-16T00:52:07.755Z,26.12
2023-03-16T00:56:07.673Z,26.12
2023-03-16T01:00:07.651Z,26.14
2023-03-16T01:04:07.604Z,26.13
2023-03-16T01:08:07.590Z,26.17
2023-03-16T01:12:07.531Z,26.17
2023-03-16T01:16:07.669Z,26.21
2023-03-16T01:20:07.608Z,26.21
2023-03-16T01:24:07.542Z,26.24
2023-03-16T01:28:08.020Z,26.25
2023-03-16T01:32:07.457Z,26.26
2023-03-16T01:36:07.513Z,26.26
2023-03-16T01:40:07.409Z,26.28
2023-03-16T01:44:07.420Z,26.31
2023-03-16T01:48:07.359Z,26.33
2023-03-16T01:52:07.328Z,26.32
2023-03-16T01:56:07.291Z,26.38
2023-03-16T02:00:07.445Z,26.37
2023-03-16T02:04:07.647Z,26.39
2023-03-16T02:08:07.852Z,26.37
2023-03-16T02:12:07.844Z,26.36
2023-03-16T02:16:07.785Z,26.42
2023-03-16T02:20:07.724Z,26.43
2023-03-16T02:24:07.679Z,26.44
2023-03-16T02:28:07.640Z,26.45
2023-03-16T02:32:07.609Z,26.48
2023-03-16T02:36:07.612Z,26.50
2023-03-16T02:40:07.508Z,26.51
2023-03-16T02:44:07.473Z,26.51
2023-03-16T02:48:07.440Z,26.53
2023-03-16T02:52:07.408Z,26.54
2023-03-16T02:56:07.393Z,26.54
2023-03-16T03:00:07.301Z,26.57
2023-03-16T03:04:07.364Z,26.55
2023-03-16T03:08:07.301Z,26.56
2023-03-16T03:12:07.265Z,26.59
2023-03-16T03:16:07.300Z,26.58
2023-03-16T03:20:07.204Z,26.61
2023-03-16T03:24:07.250Z,26.65
2023-03-16T03:28:07.272Z,26.65
2023-03-16T03:32:07.180Z,26.67
2023-03-16T03:36:07.205Z,26.67
2023-03-16T03:40:07.122Z,26.69
2023-03-16T03:44:07.164Z,26.69
2023-03-16T03:48:07.107Z,26.72
2023-03-16T03:52:07.114Z,26.70
2023-03-16T03:56:07.013Z,26.72
2023-03-16T04:00:07.062Z,26.73
2023-03-16T04:04:07.042Z,26.77
2023-03-16T04:08:07.025Z,26.76
2023-03-16T04:12:07.347Z,26.79
2023-03-16T04:16:07.058Z,26.78
2023-03-16T04:20:06.981Z,26.81
2023-03-16T04:24:07.023Z,26.83
2023-03-16T04:28:06.970Z,26.84
2023-03-16T04:32:06.937Z,26.82
2023-03-16T04:36:07.034Z,26.86
2023-03-16T04:40:07.750Z,26.86
2023-03-16T04:44:06.959Z,26.85
2023-03-16T04:48:06.946Z,26.89
2023-03-16T04:52:06.899Z,26.89
2023-03-16T04:56:07.027Z,26.92
2023-03-16T05:00:07.012Z,26.93
2023-03-16T05:04:06.948Z,26.72
2023-03-16T05:08:07.006Z,26.17
2023-03-16T05:12:06.989Z,25.77
2023-03-16T05:16:07.130Z,25.34
2023-03-16T05:20:07.231Z,25.06
2023-03-16T05:24:07.356Z,24.91
2023-03-16T05:28:07.559Z,24.67
2023-03-16T05:32:07.722Z,24.62
2023-03-16T05:36:07.936Z,24.68
2023-03-16T05:40:07.973Z,24.65
2023-03-16T05:44:08.005Z,24.74
2023-03-16T05:48:08.036Z,24.80
2023-03-16T05:52:08.087Z,24.88
2023-03-16T05:56:08.112Z,24.91
2023-03-16T06:00:08.131Z,24.99
2023-03-16T06:04:08.338Z,25.03
2023-03-16T06:08:08.655Z,25.10
2023-03-16T06:12:08.313Z,25.14
2023-03-16T06:16:08.406Z,25.19
2023-03-16T06:20:08.303Z,25.19
2023-03-16T06:24:08.399Z,25.21
2023-03-16T06:28:08.332Z,25.27
2023-03-16T06:32:08.352Z,25.34
2023-03-16T06:36:08.330Z,25.43
2023-03-16T06:40:08.310Z,25.72
2023-03-16T06:44:08.430Z,26.15
2023-03-16T06:48:08.708Z,26.27
2023-03-16T06:52:08.400Z,26.43
2023-03-16T06:56:08.660Z,26.41
2023-03-16T07:00:08.321Z,26.41
2023-03-16T07:04:08.344Z,26.37
2023-03-16T07:08:08.244Z,26.53
2023-03-16T07:12:08.205Z,26.53
2023-03-16T07:16:08.157Z,26.39
2023-03-16T07:20:08.118Z,26.41
2023-03-16T07:24:08.043Z,26.42
2023-03-16T07:28:08.007Z,26.35
2023-03-16T07:36:27.446Z,26.61
2023-03-16T07:40:27.724Z,26.52
2023-03-16T07:44:27.418Z,22.75
2023-03-16T07:48:27.378Z,25.02
2023-03-16T07:52:27.432Z,25.46
2023-03-16T07:56:33.670Z,25.64
2023-03-16T08:00:28.888Z,25.76
2023-03-16T08:04:27.506Z,25.87
2023-03-16T08:08:27.557Z,26.18
2023-03-16T08:12:27.890Z,26.17
2023-03-16T08:16:27.987Z,26.12
2023-03-16T08:20:28.468Z,25.91
2023-03-16T08:24:28.406Z,25.90
2023-03-16T08:28:28.397Z,25.87
2023-03-16T08:32:28.458Z,25.14
2023-03-16T08:36:28.379Z,25.05
2023-03-16T08:40:29.275Z,25.23
2023-03-16T08:44:28.494Z,25.37
2023-03-16T08:48:28.447Z,25.48
2023-03-16T08:52:29.005Z,25.55
2023-03-16T08:56:28.500Z,25.58
2023-03-16T09:00:28.693Z,25.56
2023-03-16T09:04:28.558Z,25.53
2023-03-16T09:08:28.447Z,25.41
2023-03-16T09:12:28.362Z,25.66
2023-03-16T09:16:28.988Z,25.54
2023-03-16T09:20:30.166Z,25.45
2023-03-16T09:24:28.401Z,25.70
2023-03-16T09:28:28.522Z,21.07
2023-03-16T09:32:28.690Z,19.94
2023-03-16T09:36:28.645Z,22.15
2023-03-16T09:40:28.831Z,22.52
2023-03-16T09:44:28.888Z,22.97
2023-03-16T09:48:29.025Z,23.21
2023-03-16T09:52:29.103Z,23.44
2023-03-16T09:56:29.135Z,23.65
2023-03-16T10:00:29.456Z,23.96
2023-03-16T10:04:29.978Z,24.30
2023-03-16T10:08:29.566Z,24.44
2023-03-16T10:12:29.718Z,24.38
2023-03-16T10:16:32.995Z,24.50
2023-03-16T10:20:30.119Z,24.64
2023-03-16T10:24:29.612Z,24.66
2023-03-16T10:28:29.609Z,24.68
2023-03-16T10:32:30.232Z,24.35
2023-03-16T10:36:29.588Z,24.32
2023-03-16T10:40:30.353Z,24.01
2023-03-16T10:44:29.519Z,23.26
2023-03-16T10:48:29.391Z,22.64
2023-03-16T10:52:29.432Z,22.49
2023-03-16T10:56:29.405Z,22.40
2023-03-16T11:00:29.481Z,22.15
2023-03-16T11:04:29.329Z,22.05
2023-03-16T12:42:45.994Z,22.33
2023-03-16T12:46:47.924Z,21.67
2023-03-16T12:50:46.111Z,21.90
2023-03-16T12:54:46.246Z,22.02
2023-03-16T12:58:46.376Z,22.03
2023-03-16T13:02:46.459Z,22.21
2023-03-16T13:06:46.583Z,22.28
2023-03-16T13:10:46.689Z,22.43
2023-03-16T13:14:46.839Z,22.50
2023-03-16T13:18:46.924Z,22.53
2023-03-16T13:22:47.019Z,22.59
2023-03-16T13:26:47.086Z,22.69
2023-03-16T13:30:47.159Z,22.73
2023-03-16T13:34:47.139Z,22.75
2023-03-16T13:38:47.172Z,22.79
2023-03-16T13:42:47.251Z,22.85
2023-03-16T13:46:47.176Z,22.87
2023-03-16T13:50:47.195Z,22.97
2023-03-16T13:54:47.274Z,23.06
2023-03-16T13:58:47.409Z,23.18
2023-03-16T14:02:47.460Z,23.37
2023-03-16T14:06:47.352Z,23.53
2023-03-16T14:10:47.344Z,23.49
2023-03-16T14:14:47.255Z,23.49
2023-03-16T14:18:47.227Z,23.50
2023-03-16T14:22:47.206Z,23.60
2023-03-16T14:26:47.142Z,23.55
2023-03-16T14:30:47.124Z,23.58
2023-03-16T14:34:47.069Z,23.64
2023-03-16T14:38:47.069Z,23.69
2023-03-16T14:42:47.054Z,23.64
2023-03-16T14:46:47.020Z,23.59
2023-03-16T14:50:46.965Z,23.64
2023-03-16T14:54:46.920Z,23.65
2023-03-16T14:58:46.889Z,23.67
2023-03-16T15:02:46.857Z,23.67
2023-03-16T15:06:46.946Z,23.67
2023-03-16T15:10:46.924Z,23.63
2023-03-16T15:14:47.115Z,23.69
2023-03-16T15:18:46.867Z,23.57
2023-03-16T15:22:46.850Z,23.53
2023-03-16T15:26:46.772Z,23.57
2023-03-16T15:30:46.746Z,23.58
2023-03-16T15:34:46.734Z,23.51
2023-03-16T15:38:46.686Z,23.53
2023-03-16T15:42:47.079Z,23.51
2023-03-16T15:46:46.665Z,23.51
2023-03-16T15:50:46.584Z,23.08
2023-03-16T15:54:46.549Z,22.53
2023-03-16T15:58:46.501Z,22.41
2023-03-16T16:02:46.612Z,22.34
2023-03-16T16:06:46.428Z,22.32
2023-03-16T16:10:46.960Z,22.70
2023-03-16T16:14:46.383Z,22.92
2023-03-16T16:18:46.328Z,23.13
2023-03-16T16:22:46.597Z,23.25
2023-03-16T16:26:50.934Z,23.35
2023-03-16T16:30:47.250Z,23.42
2023-03-16T16:35:01.757Z,23.47
2023-03-16T16:38:47.196Z,23.53
2023-03-16T16:42:46.167Z,23.58
2023-03-16T16:46:46.187Z,23.64
2023-03-16T16:50:46.075Z,23.67
2023-03-16T16:54:46.107Z,23.68
2023-03-16T16:58:46.048Z,23.77
2023-03-16T17:02:46.005Z,23.82
2023-03-16T17:06:46.122Z,23.86
2023-03-16T17:10:46.255Z,23.90
2023-03-16T17:14:46.413Z,23.90
2023-03-16T17:18:46.611Z,23.92
2023-03-16T17:22:46.784Z,23.97
2023-03-16T17:26:46.966Z,23.98
2023-03-16T17:30:47.199Z,24.02
2023-03-16T17:34:47.140Z,24.02
2023-03-16T17:38:47.122Z,24.05
2023-03-16T17:42:47.090Z,24.05
2023-03-16T17:46:47.057Z,24.03
2023-03-16T17:50:47.055Z,24.13
2023-03-16T17:54:46.977Z,24.18
2023-03-16T17:58:46.959Z,24.21
2023-03-16T18:02:46.917Z,24.27
2023-03-16T18:06:46.844Z,24.24
2023-03-16T18:10:46.921Z,24.19
2023-03-16T18:14:46.802Z,24.23
2023-03-16T18:18:46.775Z,24.25
2023-03-16T18:22:46.753Z,24.22
2023-03-16T18:26:46.678Z,24.23
2023-03-16T18:30:46.665Z,24.16
2023-03-16T18:34:46.590Z,24.49
2023-03-16T18:38:46.548Z,24.55
2023-03-16T18:42:46.554Z,24.34
2023-03-16T18:46:46.528Z,23.99
2023-03-16T18:50:46.540Z,23.69
2023-03-16T18:54:46.505Z,23.46
2023-03-16T18:58:46.504Z,23.31
2023-03-16T19:02:46.428Z,23.16
2023-03-16T19:06:46.396Z,23.07
2023-03-16T19:10:46.319Z,23.14
2023-03-16T19:14:46.284Z,23.24
2023-03-16T21:11:05.193Z,24.53
2023-03-16T21:15:05.301Z,24.55
2023-03-16T21:19:05.450Z,24.58
2023-03-16T21:23:05.620Z,24.58
2023-03-16T21:27:05.853Z,24.62
2023-03-16T21:31:06.087Z,24.64
2023-03-16T21:35:06.284Z,24.65
2023-03-16T21:39:06.231Z,24.65
2023-03-16T21:43:06.200Z,24.69
2023-03-16T22:31:06.346Z,24.83
2023-03-16T22:35:06.318Z,24.87
2023-03-16T22:39:06.316Z,24.88
